Time;durP1;ratioP1;P1;durP2;ratioP2;P2;SDS_P1;SDS_P2;PMS_P1;PMS_P2;Temp;Humidity;BMP_temperature;BMP_pressure;BME280_temperature;BME280_humidity;BME280_pressure;Samples;Min_cycle;Max_cycle;Signal;HPM_P1;HPM_P2
2022/05/03 00:02:06;;;;;;;7.83;5.97;;;10.70;1.00;;;;;;5011208;28;20169;-73
2022/05/03 00:05:02;;;;;;;7.03;5.77;;;10.60;99.90;;;;;;5009690;28;20167;-72
2022/05/03 00:07:39;;;;;;;6.27;5.23;;;10.60;1.00;;;;;;5009821;28;20220;-73
2022/05/03 00:10:08;;;;;;;8.23;5.83;;;10.60;1.00;;;;;;5009386;28;20283;-73
2022/05/03 00:13:00;;;;;;;6.63;5.70;;;10.60;99.90;;;;;;5010809;28;20169;-72
2022/05/03 00:15:26;;;;;;;8.50;6.23;;;10.50;18.00;;;;;;5001180;28;20181;-72
2022/05/03 00:17:53;;;;;;;7.90;6.03;;;10.50;99.90;;;;;;5010686;28;20629;-72
2022/05/03 00:20:20;;;;;;;5.90;5.20;;;10.40;12.20;;;;;;5010557;28;20555;-72
2022/05/03 00:22:46;;;;;;;12.30;5.63;;;10.40;48.00;;;;;;5009597;28;20665;-72
2022/05/03 00:25:12;;;;;;;7.17;5.77;;;10.40;1.00;;;;;;5010544;28;20655;-72
2022/05/03 00:27:38;;;;;;;7.70;5.70;;;10.30;99.90;;;;;;5009135;28;20261;-72
2022/05/03 00:30:04;;;;;;;9.60;5.97;;;10.30;1.00;;;;;;5010388;28;20193;-72
2022/05/03 00:32:31;;;;;;;8.30;6.20;;;10.20;27.70;;;;;;5010317;28;20176;-72
2022/05/03 00:35:00;;;;;;;9.63;6.03;;;10.20;1.00;;;;;;5010594;28;20587;-72
2022/05/03 00:37:26;;;;;;;8.80;5.20;;;10.20;64.60;;;;;;5009017;28;20618;-72
2022/05/03 00:39:52;;;;;;;7.73;5.53;;;10.20;79.00;;;;;;5008883;28;20250;-72
2022/05/03 00:42:33;;;;;;;7.53;5.60;;;10.20;99.90;;;;;;5010363;28;20166;-72
2022/05/03 00:45:17;;;;;;;7.63;5.87;;;10.10;1.00;;;;;;5009016;28;20630;-72
2022/05/03 00:48:20;;;;;;;6.33;5.57;;;10.10;1.00;;;;;;5010451;28;20211;-72
2022/05/03 00:50:55;;;;;;;7.10;5.23;;;10.00;1.00;;;;;;5008924;28;20570;-72
2022/05/03 00:53:33;;;;;;;7.27;5.30;;;10.00;31.70;;;;;;5010443;28;20157;-73
2022/05/03 00:56:26;;;;;;;5.70;4.83;;;9.90;99.90;;;;;;5010344;28;20245;-72
2022/05/03 00:59:00;;;;;;;7.37;5.53;;;9.90;1.00;;;;;;5008804;28;20169;-72
2022/05/03 01:01:25;;;;;;;9.80;5.23;;;9.80;1.00;;;;;;5008660;28;20253;-72
2022/05/03 01:04:21;;;;;;;7.43;5.60;;;9.80;1.00;;;;;;5009967;28;20256;-72
2022/05/03 01:07:24;;;;;;;11.17;6.20;;;9.70;1.00;;;;;;5010116;28;20181;-72
2022/05/03 01:10:28;;;;;;;6.83;4.87;;;9.70;99.90;;;;;;5008709;28;20200;-73
2022/05/03 01:12:57;;;;;;;7.17;5.60;;;9.70;99.90;;;;;;4986293;28;20285;-72
2022/05/03 01:15:30;;;;;;;12.47;5.67;;;9.70;99.90;;;;;;5009935;28;20177;-72
2022/05/03 01:18:26;;;;;;;6.60;5.20;;;9.60;99.90;;;;;;5008553;28;20235;-72
2022/05/03 01:21:29;;;;;;;5.57;4.97;;;9.60;99.90;;;;;;5009769;28;20185;-72
2022/05/03 01:24:20;;;;;;;9.50;5.53;;;9.60;99.90;;;;;;5008463;28;20169;-73
2022/05/03 01:27:35;;;;;;;8.47;5.30;;;9.50;1.00;;;;;;5009141;28;20594;-72
2022/05/03 01:30:02;;;;;;;6.03;5.10;;;9.40;1.00;;;;;;5011744;28;20193;-72
2022/05/03 01:32:31;;;;;;;6.67;4.80;;;9.40;1.00;;;;;;5011892;28;20260;-72
2022/05/03 01:35:00;;;;;;;5.23;4.60;;;9.40;1.00;;;;;;5013062;28;20193;-72
2022/05/03 01:37:46;;;;;;;9.20;5.80;;;9.40;1.00;;;;;;5011667;28;20217;-72
2022/05/03 01:40:22;;;;;;;7.07;5.67;;;9.30;1.00;;;;;;5012180;28;20234;-72
2022/05/03 01:43:07;;;;;;;8.77;5.50;;;9.30;1.00;;;;;;5012851;28;20165;-72
2022/05/03 01:45:56;;;;;;;6.30;4.87;;;9.30;1.00;;;;;;5011698;28;20265;-72
2022/05/03 01:51:49;;;;;;;7.17;4.70;;;9.20;1.00;;;;;;5012705;28;20199;-72
2022/05/03 01:54:26;;;;;;;5.50;5.00;;;9.20;41.50;;;;;;5011553;28;20544;-71
2022/05/03 01:57:04;;;;;;;9.07;5.20;;;9.10;16.80;;;;;;5012985;28;20157;-72
2022/05/03 01:59:48;;;;;;;6.67;5.30;;;9.10;1.00;;;;;;5012934;28;20236;-72
2022/05/03 02:02:33;;;;;;;6.23;5.50;;;9.10;1.00;;;;;;5012927;28;20209;-72
2022/05/03 02:05:05;;;;;;;8.67;5.60;;;9.10;1.00;;;;;;5012837;28;20153;-72
2022/05/03 02:07:56;;;;;;;7.43;5.13;;;9.00;1.00;;;;;;5012715;28;20338;-72
2022/05/03 02:10:30;;;;;;;6.53;5.53;;;9.00;1.00;;;;;;5012832;28;20181;-73
2022/05/03 02:13:00;;;;;;;6.93;5.43;;;9.30;1.00;;;;;;5012702;28;20214;-72
2022/05/03 02:15:39;;;;;;;7.73;6.00;;;9.00;1.00;;;;;;5011168;28;20178;-73
2022/05/03 02:18:23;;;;;;;6.70;5.20;;;8.90;1.00;;;;;;5012628;28;20603;-72
2022/05/03 02:21:10;;;;;;;7.83;5.77;;;8.90;1.00;;;;;;5012371;28;20193;-72
2022/05/03 02:23:37;;;;;;;9.60;5.63;;;8.90;1.00;;;;;;5010908;28;20177;-72
2022/05/03 02:26:31;;;;;;;8.60;6.03;;;8.90;1.00;;;;;;5012082;28;20275;-72
2022/05/03 02:29:03;;;;;;;7.20;5.47;;;8.90;1.00;;;;;;5012355;28;20189;-72
2022/05/03 02:31:51;;;;;;;7.60;5.90;;;8.90;1.00;;;;;;5012140;28;20563;-72
2022/05/03 02:34:38;;;;;;;10.03;6.13;;;8.80;1.00;;;;;;5012013;28;20256;-73
2022/05/03 02:37:17;;;;;;;7.50;5.73;;;8.90;1.00;;;;;;5012353;28;20494;-72
2022/05/03 02:40:07;;;;;;;11.27;6.10;;;8.80;1.00;;;;;;5010487;28;20271;-72
2022/05/03 02:42:34;;;;;;;8.10;6.30;;;8.80;1.00;;;;;;5010828;28;20173;-72
2022/05/03 02:45:01;;;;;;;10.47;7.00;;;8.70;1.00;;;;;;5011991;28;20184;-72
2022/05/03 02:47:48;;;;;;;8.17;6.30;;;8.70;1.30;;;;;;5010662;28;20243;-72
2022/05/03 02:51:01;;;;;;;7.73;6.23;;;8.70;7.10;;;;;;5011000;28;20193;-72
2022/05/03 02:53:48;;;;;;;8.57;6.20;;;8.70;12.60;;;;;;5011881;28;20648;-72
2022/05/03 02:56:30;;;;;;;10.27;7.13;;;8.60;37.70;;;;;;5010749;28;20173;-72
2022/05/03 02:59:11;;;;;;;8.60;6.40;;;8.60;53.40;;;;;;5011775;28;20161;-72
2022/05/03 03:01:49;;;;;;;8.47;6.37;;;8.60;86.40;;;;;;5011761;28;20284;-72
2022/05/03 03:04:27;;;;;;;8.20;6.30;;;8.60;94.50;;;;;;5010403;28;20176;-72
2022/05/03 03:06:55;;;;;;;9.10;6.73;;;8.60;99.90;;;;;;5011787;28;20157;-72
2022/05/03 03:09:44;;;;;;;8.60;6.37;;;8.60;99.10;;;;;;5010367;28;20208;-72
2022/05/03 03:12:20;;;;;;;9.00;6.33;;;8.60;99.90;;;;;;5011553;28;20181;-72
2022/05/03 03:14:47;;;;;;;10.50;6.53;;;8.50;99.90;;;;;;5011032;28;20177;-72
2022/05/03 03:17:19;;;;;;;8.63;6.63;;;8.50;99.90;;;;;;5010260;28;20176;-73
2022/05/03 03:20:27;;;;;;;11.87;6.33;;;8.50;99.90;;;;;;5011573;28;20682;-72
2022/05/03 03:22:55;;;;;;;8.07;6.33;;;8.40;99.90;;;;;;4970341;28;20205;-72
2022/05/03 03:25:22;;;;;;;9.37;6.77;;;8.40;99.90;;;;;;5005517;28;20230;-73
2022/05/03 03:27:51;;;;;;;8.47;6.80;;;8.30;99.90;;;;;;5011267;28;20283;-72
2022/05/03 03:30:17;;;;;;;8.90;6.93;;;8.30;99.90;;;;;;5010021;28;20196;-72
2022/05/03 03:32:48;;;;;;;10.13;7.00;;;8.30;99.90;;;;;;5011374;28;20173;-73
2022/05/03 03:35:15;;;;;;;8.03;6.77;;;8.30;99.90;;;;;;5011525;28;20181;-73
2022/05/03 03:37:47;;;;;;;9.10;7.30;;;8.30;99.90;;;;;;5011416;28;20173;-71
2022/05/03 03:40:14;;;;;;;8.50;6.70;;;8.20;99.90;;;;;;5009736;28;20209;-72
2022/05/03 03:42:42;;;;;;;9.77;7.17;;;8.30;99.90;;;;;;5011081;28;20180;-72
2022/05/03 03:45:10;;;;;;;8.67;6.73;;;8.20;99.90;;;;;;5011110;28;20173;-72
2022/05/03 03:47:36;;;;;;;12.80;7.87;;;8.20;99.90;;;;;;5010914;28;20224;-72
2022/05/03 03:50:03;;;;;;;11.77;7.43;;;8.20;99.90;;;;;;5010698;28;20228;-72
2022/05/03 03:52:32;;;;;;;10.30;7.73;;;8.20;99.90;;;;;;5009705;28;20646;-72
2022/05/03 03:54:58;;;;;;;10.83;7.63;;;8.20;99.90;;;;;;5011162;28;20188;-72
2022/05/03 03:57:24;;;;;;;11.00;7.43;;;8.20;99.90;;;;;;5009739;28;20185;-72
2022/05/03 03:59:50;;;;;;;11.77;7.50;;;8.10;99.90;;;;;;5010851;28;20169;-72
2022/05/03 04:02:17;;;;;;;9.33;7.83;;;8.10;99.90;;;;;;5011659;28;20508;-72
2022/05/03 04:04:44;;;;;;;9.60;7.57;;;8.10;99.90;;;;;;5010986;28;20257;-72
2022/05/03 04:07:10;;;;;;;10.73;7.90;;;8.10;99.90;;;;;;5010664;28;20205;-72
2022/05/03 04:09:36;;;;;;;10.67;7.83;;;8.10;99.90;;;;;;5009322;28;20664;-72
2022/05/03 04:12:03;;;;;;;8.60;6.60;;;8.00;99.90;;;;;;5009380;28;20314;-72
2022/05/03 04:14:29;;;;;;;12.67;7.40;;;8.00;99.90;;;;;;5010519;28;20181;-72
2022/05/03 04:16:55;;;;;;;9.13;7.33;;;8.00;99.90;;;;;;5010586;28;20183;-73
2022/05/03 04:19:21;;;;;;;8.90;7.47;;;8.00;99.90;;;;;;5009317;28;20181;-73
2022/05/03 04:21:47;;;;;;;9.80;7.27;;;8.00;99.90;;;;;;5010470;28;20701;-73
2022/05/03 04:24:13;;;;;;;8.93;7.77;;;8.00;99.90;;;;;;5010630;28;20204;-73
2022/05/03 04:26:39;;;;;;;8.90;7.27;;;8.00;99.90;;;;;;5010604;28;20615;-73
2022/05/03 04:29:05;;;;;;;9.63;7.27;;;8.00;99.90;;;;;;5010364;28;20209;-73
2022/05/03 04:31:32;;;;;;;10.97;7.87;;;8.00;99.90;;;;;;5009164;28;20232;-72
2022/05/03 04:34:00;;;;;;;10.53;7.30;;;8.00;99.90;;;;;;5010413;28;20588;-73
2022/05/03 04:36:26;;;;;;;9.70;7.40;;;8.00;99.90;;;;;;5009186;28;20177;-73
2022/05/03 04:38:52;;;;;;;9.17;7.50;;;7.90;99.90;;;;;;5010362;28;20188;-74
2022/05/03 04:41:21;;;;;;;11.40;8.03;;;8.00;99.90;;;;;;5008827;28;20220;-73
2022/05/03 04:43:46;;;;;;;13.43;8.13;;;8.00;99.90;;;;;;5010159;28;20179;-73
2022/05/03 04:46:12;;;;;;;12.17;8.50;;;8.00;99.90;;;;;;5010283;28;20272;-72
2022/05/03 04:48:38;;;;;;;12.13;8.07;;;8.00;99.90;;;;;;5010175;28;20250;-74
2022/05/03 04:51:04;;;;;;;10.33;7.67;;;7.90;99.90;;;;;;5009143;28;20204;-73
2022/05/03 04:53:29;;;;;;;11.03;7.07;;;8.00;99.90;;;;;;5009025;28;20294;-73
2022/05/03 04:55:55;;;;;;;8.97;7.07;;;8.00;99.90;;;;;;5010217;28;20302;-73
2022/05/03 04:58:20;;;;;;;12.83;7.60;;;8.00;99.90;;;;;;5010447;28;20181;-73
2022/05/03 05:00:46;;;;;;;14.50;7.80;;;8.00;99.90;;;;;;5010085;28;20215;-73
2022/05/03 05:03:11;;;;;;;15.07;7.83;;;8.00;99.90;;;;;;5011472;28;20181;-74
2022/05/03 05:05:37;;;;;;;11.53;7.93;;;8.00;99.90;;;;;;5012155;28;20185;-73
2022/05/03 05:08:07;;;;;;;11.70;8.07;;;8.00;99.90;;;;;;5012054;28;20208;-73
2022/05/03 05:10:33;;;;;;;14.07;7.40;;;7.90;99.90;;;;;;5011825;28;20697;-72
2022/05/03 05:13:00;;;;;;;10.43;7.67;;;8.00;99.90;;;;;;5013592;28;20169;-73
2022/05/03 05:15:27;;;;;;;16.30;8.57;;;8.00;99.90;;;;;;5013228;28;20200;-73
2022/05/03 05:17:54;;;;;;;11.33;8.70;;;8.00;99.90;;;;;;5011691;28;20647;-73
2022/05/03 05:20:20;;;;;;;12.93;8.07;;;8.00;99.90;;;;;;5013025;28;20208;-73
2022/05/03 05:22:46;;;;;;;11.13;8.43;;;8.10;99.90;;;;;;5012026;28;20268;-72
2022/05/03 05:25:12;;;;;;;11.63;8.67;;;8.10;99.90;;;;;;5011857;28;20235;-74
2022/05/03 05:27:37;;;;;;;11.10;8.50;;;8.10;99.90;;;;;;5013011;28;20208;-73
2022/05/03 05:30:06;;;;;;;10.17;8.00;;;8.10;99.90;;;;;;5013070;28;20558;-73
2022/05/03 05:32:35;;;;;;;11.83;8.53;;;8.20;99.90;;;;;;5011832;28;20181;-73
2022/05/03 05:35:00;;;;;;;10.93;7.80;;;8.20;99.90;;;;;;5011574;28;20178;-73
2022/05/03 05:37:26;;;;;;;12.93;8.47;;;8.20;99.90;;;;;;5011623;28;20188;-73
2022/05/03 05:39:52;;;;;;;9.70;7.90;;;8.20;99.90;;;;;;5011391;28;20196;-73
2022/05/03 05:42:17;;;;;;;14.20;8.53;;;8.20;99.90;;;;;;5013132;28;20178;-73
2022/05/03 05:44:43;;;;;;;10.50;7.63;;;8.30;99.90;;;;;;5012679;28;20181;-73
2022/05/03 05:47:08;;;;;;;13.07;7.50;;;8.30;99.90;;;;;;5012059;28;20270;-74
2022/05/03 05:49:34;;;;;;;13.13;8.40;;;8.40;99.90;;;;;;5012877;28;20256;-73
2022/05/03 05:54:44;;;;;;;8.80;7.13;;;8.40;99.90;;;;;;5012975;28;20168;-72
2022/05/03 05:57:10;;;;;;;10.60;7.43;;;8.50;99.90;;;;;;5012732;28;20185;-73
2022/05/03 05:59:35;;;;;;;14.07;7.70;;;8.60;99.90;;;;;;5012662;28;20173;-73
2022/05/03 06:02:01;;;;;;;11.20;7.37;;;8.60;47.20;;;;;;5012782;28;20177;-72
2022/05/03 06:04:27;;;;;;;9.80;7.10;;;8.70;8.30;;;;;;5011409;28;20179;-73
2022/05/03 06:06:54;;;;;;;7.63;6.83;;;8.80;1.00;;;;;;5012533;28;20238;-72
2022/05/03 06:09:19;;;;;;;9.67;7.43;;;8.80;1.00;;;;;;5013946;28;20173;-73
2022/05/03 06:11:45;;;;;;;8.60;6.73;;;8.90;1.00;;;;;;5012524;28;20189;-72
2022/05/03 06:14:10;;;;;;;8.50;7.00;;;8.90;99.90;;;;;;5012074;28;20173;-73
2022/05/03 06:16:50;;;;;;;9.83;6.70;;;9.00;99.90;;;;;;5012581;28;20230;-73
2022/05/03 06:19:16;;;;;;;10.43;6.07;;;9.10;41.40;;;;;;5012681;28;20176;-73
2022/05/03 06:21:42;;;;;;;9.50;6.90;;;9.10;1.00;;;;;;5010792;28;20208;-73
2022/05/03 06:24:08;;;;;;;10.93;5.97;;;9.20;1.00;;;;;;5012171;28;20568;-74
2022/05/03 06:26:34;;;;;;;11.23;6.30;;;9.30;1.00;;;;;;5012107;28;20187;-73
2022/05/03 06:29:09;;;;;;;10.50;6.03;;;9.30;21.90;;;;;;5012068;28;20589;-73
2022/05/03 06:31:36;;;;;;;7.60;5.73;;;9.40;1.00;;;;;;5010773;28;20193;-73
2022/05/03 06:34:05;;;;;;;8.77;5.93;;;9.50;99.90;;;;;;5012160;28;20173;-74
2022/05/03 06:36:33;;;;;;;11.17;6.20;;;9.50;30.20;;;;;;5010885;28;20176;-73
2022/05/03 06:38:59;;;;;;;10.00;6.00;;;9.60;1.00;;;;;;5012065;28;20544;-73
2022/05/03 06:41:24;;;;;;;14.20;6.50;;;9.60;1.00;;;;;;5012043;28;20721;-73
2022/05/03 06:43:50;;;;;;;9.60;6.40;;;9.70;76.10;;;;;;5010841;28;20272;-73
2022/05/03 06:46:16;;;;;;;10.80;6.30;;;9.80;1.00;;;;;;5010498;28;20191;-72
2022/05/03 06:48:42;;;;;;;10.93;5.77;;;9.80;99.90;;;;;;5010507;28;20205;-73
2022/05/03 06:51:07;;;;;;;14.27;5.50;;;9.90;99.90;;;;;;5011813;28;20191;-73
2022/05/03 06:53:35;;;;;;;11.90;6.03;;;10.00;99.90;;;;;;5011769;28;20174;-73
2022/05/03 06:56:00;;;;;;;5.70;5.07;;;10.10;99.90;;;;;;5011686;28;20169;-72
2022/05/03 06:58:26;;;;;;;14.57;5.67;;;10.10;99.90;;;;;;5011658;28;20715;-73
2022/05/03 07:00:52;;;;;;;8.20;5.23;;;10.20;99.90;;;;;;5011637;28;20227;-73
2022/05/03 07:03:17;;;;;;;7.50;5.90;;;10.30;1.00;;;;;;5011806;28;20181;-73
2022/05/03 07:05:43;;;;;;;6.93;4.97;;;10.30;99.90;;;;;;5011594;28;20215;-73
2022/05/03 07:08:10;;;;;;;10.40;5.70;;;10.40;99.90;;;;;;5010220;28;20272;-73
2022/05/03 07:10:39;;;;;;;10.30;5.20;;;10.50;99.90;;;;;;5011520;28;20188;-72
2022/05/03 07:13:12;;;;;;;8.13;6.03;;;10.50;99.90;;;;;;5012063;28;20173;-73
2022/05/03 07:15:37;;;;;;;8.13;4.57;;;10.60;1.00;;;;;;5011408;28;20623;-73
2022/05/03 07:23:32;;;;;;;6.53;4.50;;;10.70;99.90;;;;;;5011925;28;20302;-73
2022/05/03 07:25:58;;;;;;;8.53;4.77;;;10.80;1.00;;;;;;5010528;28;20619;-73
2022/05/03 07:28:23;;;;;;;11.10;4.63;;;10.80;99.90;;;;;;5011146;28;20209;-73
2022/05/03 07:30:49;;;;;;;8.23;4.23;;;10.90;99.90;;;;;;5010080;28;20204;-73
2022/05/03 07:33:15;;;;;;;8.67;4.73;;;11.00;99.90;;;;;;5011366;28;20260;-72
2022/05/03 07:35:40;;;;;;;7.27;4.03;;;11.00;99.90;;;;;;5011145;28;20239;-73
2022/05/03 07:38:06;;;;;;;5.73;4.03;;;11.10;1.00;;;;;;5009956;28;20185;-72
2022/05/03 07:40:32;;;;;;;5.37;3.90;;;11.20;1.00;;;;;;5010958;28;20216;-72
2022/05/03 07:42:57;;;;;;;7.50;3.93;;;11.30;1.00;;;;;;5011399;28;20189;-72
2022/05/03 07:45:23;;;;;;;5.90;4.00;;;11.40;1.00;;;;;;5011369;28;20173;-72
2022/05/03 07:47:49;;;;;;;5.83;3.90;;;11.40;1.00;;;;;;5010984;28;20638;-73
2022/05/03 07:50:14;;;;;;;7.47;3.90;;;11.50;1.00;;;;;;5010970;28;20204;-73
2022/05/03 07:52:40;;;;;;;9.33;4.07;;;11.60;99.90;;;;;;5010945;28;20321;-72
2022/05/03 07:55:08;;;;;;;7.60;3.60;;;11.70;99.60;;;;;;5011049;28;20215;-73
2022/05/03 07:57:35;;;;;;;5.40;3.47;;;11.80;99.90;;;;;;5011103;28;20173;-72
2022/05/03 08:00:00;;;;;;;4.80;3.10;;;11.90;99.90;;;;;;5011353;28;20189;-72
2022/05/03 08:02:26;;;;;;;4.57;3.17;;;11.90;99.90;;;;;;5011198;28;20215;-73
2022/05/03 08:04:53;;;;;;;10.43;3.20;;;12.00;1.00;;;;;;5010862;28;20234;-72
2022/05/03 08:07:19;;;;;;;4.37;3.07;;;12.10;99.90;;;;;;5011196;28;20223;-72
2022/05/03 08:09:46;;;;;;;7.10;4.03;;;12.20;1.00;;;;;;5010752;28;20184;-73
2022/05/03 08:12:13;;;;;;;7.20;3.23;;;12.30;1.00;;;;;;5010789;28;20256;-73
2022/05/03 08:14:39;;;;;;;4.97;2.63;;;12.40;1.00;;;;;;5010606;28;20173;-73
2022/05/03 08:17:05;;;;;;;6.43;2.90;;;12.50;1.00;;;;;;5010915;28;20175;-73
2022/05/03 08:19:31;;;;;;;12.07;3.00;;;12.60;1.00;;;;;;5009298;28;20268;-73
2022/05/03 08:21:57;;;;;;;5.17;2.40;;;12.70;1.00;;;;;;5010423;28;20722;-72
2022/05/03 08:24:23;;;;;;;6.20;2.50;;;12.80;99.90;;;;;;5010497;28;20188;-73
2022/05/03 08:26:48;;;;;;;6.03;2.60;;;12.90;90.50;;;;;;5010600;28;20177;-72
2022/05/03 08:29:15;;;;;;;3.63;2.27;;;12.90;99.90;;;;;;5010314;28;20209;-73
2022/05/03 08:31:41;;;;;;;5.00;2.33;;;13.00;99.90;;;;;;5009033;28;20200;-73
2022/05/03 08:34:07;;;;;;;7.77;1.97;;;13.00;99.90;;;;;;5010421;28;20188;-73
2022/05/03 08:36:33;;;;;;;4.00;2.00;;;13.10;99.90;;;;;;5008916;28;20181;-73
2022/05/03 08:42:01;;;;;;;3.90;2.00;;;13.30;22.70;;;;;;5010446;28;20227;-73
2022/05/03 08:44:28;;;;;;;1.63;1.53;;;13.40;99.90;;;;;;5010567;28;20208;-73
2022/05/03 08:46:56;;;;;;;2.90;1.90;;;13.50;44.10;;;;;;5010089;28;20243;-75
2022/05/03 08:49:23;;;;;;;3.47;1.70;;;13.50;46.30;;;;;;5010198;28;20551;-74
2022/05/03 08:51:51;;;;;;;3.93;1.77;;;13.60;1.00;;;;;;5010116;28;20249;-72
2022/05/03 08:54:17;;;;;;;1.53;1.43;;;13.60;1.00;;;;;;5010224;28;20177;-72
2022/05/03 08:56:43;;;;;;;2.07;1.33;;;13.80;1.00;;;;;;5008987;28;20187;-73
2022/05/03 08:59:09;;;;;;;1.93;1.50;;;13.80;1.00;;;;;;5009089;28;20181;-72
2022/05/03 09:01:36;;;;;;;1.80;1.30;;;13.90;1.00;;;;;;5010167;28;20205;-72
2022/05/03 09:04:02;;;;;;;4.23;1.50;;;14.00;1.00;;;;;;5010174;28;20655;-73
2022/05/03 09:06:48;;;;;;;2.50;1.53;;;14.00;1.00;;;;;;5010403;28;20234;-73
2022/05/03 09:09:15;;;;;;;1.73;1.30;;;14.10;1.00;;;;;;5008891;28;20620;-73
2022/05/03 09:11:48;;;;;;;2.10;1.40;;;14.20;1.00;;;;;;5009974;28;20658;-72
2022/05/03 09:14:33;;;;;;;1.90;1.30;;;14.10;1.00;;;;;;5010110;28;20180;-73
2022/05/03 09:16:58;;;;;;;2.07;1.50;;;14.10;1.00;;;;;;5010354;28;20166;-72
2022/05/03 09:19:25;;;;;;;2.37;1.50;;;14.20;1.00;;;;;;5010029;28;20170;-73
2022/05/03 09:24:58;;;;;;;2.83;1.73;;;14.30;1.00;;;;;;5010542;28;20192;-73
2022/05/03 09:27:25;;;;;;;3.93;1.40;;;14.50;1.00;;;;;;5008640;28;20205;-72
2022/05/03 09:30:10;;;;;;;2.70;1.60;;;14.50;1.00;;;;;;5010268;28;20169;-72
2022/05/03 09:32:40;;;;;;;3.10;1.63;;;14.60;1.00;;;;;;5009834;28;20291;-72
2022/05/03 09:35:27;;;;;;;2.03;1.50;;;14.60;1.00;;;;;;5010024;28;20538;-72
2022/05/03 09:37:53;;;;;;;2.10;1.67;;;14.80;1.00;;;;;;5008842;28;20276;-72
2022/05/03 09:40:18;;;;;;;5.23;1.67;;;14.80;1.00;;;;;;5009759;28;20252;-72
2022/05/03 09:42:53;;;;;;;3.67;1.70;;;14.90;1.00;;;;;;5009821;28;20161;-72
2022/05/03 09:45:22;;;;;;;5.60;1.67;;;14.90;1.00;;;;;;5009969;28;20206;-72
2022/05/03 09:47:51;;;;;;;5.13;1.93;;;14.90;1.00;;;;;;5010499;28;20196;-72
2022/05/03 09:50:30;;;;;;;2.03;1.60;;;15.00;1.00;;;;;;5012865;28;20686;-72
2022/05/03 09:52:57;;;;;;;4.07;2.40;;;15.00;1.00;;;;;;5012924;28;20177;-72
2022/05/03 09:55:31;;;;;;;2.77;2.10;;;15.20;1.00;;;;;;5013392;28;20170;-72
2022/05/03 09:58:01;;;;;;;6.17;2.40;;;15.20;1.00;;;;;;5012920;28;20181;-72
2022/05/03 10:00:27;;;;;;;3.60;2.37;;;15.20;1.00;;;;;;5011567;28;20212;-72
2022/05/03 10:02:53;;;;;;;2.37;1.63;;;15.30;1.00;;;;;;5013015;28;20172;-73
2022/05/03 10:05:21;;;;;;;2.43;2.10;;;15.40;1.00;;;;;;5012676;28;20527;-72
2022/05/03 10:07:48;;;;;;;2.53;2.07;;;15.40;1.00;;;;;;5012916;28;20201;-72
2022/05/03 10:10:16;;;;;;;2.13;1.83;;;15.40;1.00;;;;;;5012612;28;20193;-72
2022/05/03 10:12:45;;;;;;;3.40;2.17;;;15.50;1.00;;;;;;5012624;28;20169;-72
2022/05/03 10:15:12;;;;;;;4.53;2.27;;;15.60;1.00;;;;;;5011302;28;20220;-72
2022/05/03 10:20:42;;;;;;;2.17;1.73;;;15.80;1.00;;;;;;5012817;28;20546;-72
2022/05/03 10:23:28;;;;;;;4.53;2.20;;;15.80;1.00;;;;;;5012318;28;20214;-72
2022/05/03 10:25:56;;;;;;;5.97;2.37;;;15.80;1.00;;;;;;5010908;28;20192;-73
2022/05/03 10:28:23;;;;;;;3.50;2.07;;;15.80;1.00;;;;;;5012098;28;20196;-72
2022/05/03 10:31:10;;;;;;;4.47;2.17;;;15.90;1.00;;;;;;5010754;28;20201;-73
2022/05/03 10:33:36;;;;;;;4.20;2.33;;;16.00;1.00;;;;;;5012118;28;20196;-73
2022/05/03 10:36:23;;;;;;;8.00;2.37;;;15.90;1.00;;;;;;5010802;28;20600;-72
2022/05/03 10:38:49;;;;;;;3.93;2.40;;;15.90;1.00;;;;;;5011946;28;20600;-72
2022/05/03 10:41:24;;;;;;;4.70;2.20;;;15.90;1.00;;;;;;5010636;28;20225;-73
2022/05/03 10:43:49;;;;;;;4.33;2.80;;;16.00;1.00;;;;;;5010654;28;20192;-72
2022/05/03 10:46:24;;;;;;;5.70;2.30;;;16.00;1.00;;;;;;5011882;28;20216;-72
2022/05/03 10:49:04;;;;;;;3.27;2.57;;;16.10;1.00;;;;;;5011188;28;20296;-72
2022/05/03 10:51:30;;;;;;;3.50;2.40;;;16.20;1.00;;;;;;5011722;28;20193;-72
2022/05/03 10:53:59;;;;;;;4.47;2.43;;;16.20;1.00;;;;;;5011737;28;20173;-72
2022/05/03 10:56:25;;;;;;;4.63;2.50;;;16.20;1.00;;;;;;5011675;28;20177;-72
2022/05/03 10:59:05;;;;;;;3.80;2.87;;;16.20;1.00;;;;;;5011862;28;20177;-72
2022/05/03 11:01:32;;;;;;;4.70;2.50;;;16.20;1.00;;;;;;5011647;28;20200;-74
2022/05/03 11:04:00;;;;;;;5.43;2.60;;;16.20;1.00;;;;;;5010498;28;20646;-74
2022/05/03 11:06:26;;;;;;;3.07;2.57;;;16.20;1.00;;;;;;5011554;28;20180;-73
2022/05/03 11:11:38;;;;;;;5.80;2.50;;;16.30;1.00;;;;;;5011037;28;20274;-75
2022/05/03 11:14:26;;;;;;;3.80;2.80;;;16.60;1.00;;;;;;5011554;28;20175;-74
2022/05/03 11:17:11;;;;;;;3.87;2.93;;;16.50;1.00;;;;;;5005073;28;20213;-74
2022/05/03 11:19:48;;;;;;;3.87;2.10;;;16.50;1.00;;;;;;5011344;28;20165;-73
2022/05/03 11:22:16;;;;;;;3.47;2.67;;;16.60;1.00;;;;;;5010015;28;20173;-73
2022/05/03 11:24:44;;;;;;;3.70;2.53;;;16.60;1.00;;;;;;5011330;28;20177;-73
2022/05/03 11:27:11;;;;;;;5.77;2.60;;;16.70;1.00;;;;;;5011209;28;20224;-73
2022/05/03 11:29:56;;;;;;;3.20;2.60;;;16.80;1.00;;;;;;5011077;28;20180;-72
2022/05/03 11:32:39;;;;;;;3.43;2.43;;;16.90;1.00;;;;;;5011506;28;20216;-74
2022/05/03 11:35:13;;;;;;;6.23;2.97;;;17.00;1.00;;;;;;5011348;28;20252;-73
2022/05/03 11:37:49;;;;;;;5.63;2.90;;;17.10;1.00;;;;;;5009976;28;20218;-73
2022/05/03 11:40:15;;;;;;;3.70;2.67;;;17.10;1.00;;;;;;5011092;28;20299;-73
2022/05/03 11:42:45;;;;;;;4.10;2.30;;;17.00;1.00;;;;;;5011228;28;20524;-73
2022/05/03 11:45:12;;;;;;;5.70;2.50;;;17.10;1.00;;;;;;5009714;28;20205;-73
2022/05/03 11:47:41;;;;;;;5.10;2.43;;;17.10;1.00;;;;;;5009478;28;20265;-72
2022/05/03 11:50:09;;;;;;;4.37;2.50;;;17.10;1.00;;;;;;5010555;28;20678;-73
2022/05/03 11:58:04;;;;;;;4.40;2.43;;;17.30;1.00;;;;;;5011515;28;20230;-73
2022/05/03 12:00:30;;;;;;;4.80;2.57;;;17.20;1.00;;;;;;5010657;28;20192;-72
2022/05/03 12:03:00;;;;;;;4.50;2.70;;;17.30;1.00;;;;;;5009265;28;20267;-72
2022/05/03 12:05:26;;;;;;;3.80;2.57;;;17.30;99.90;;;;;;5010910;28;20575;-72
2022/05/03 12:07:53;;;;;;;4.17;2.67;;;17.20;1.00;;;;;;5010791;28;20296;-73
2022/05/03 12:10:29;;;;;;;4.80;2.97;;;17.30;99.90;;;;;;5009998;28;20200;-73
2022/05/03 12:13:14;;;;;;;4.53;2.43;;;17.20;99.90;;;;;;5010379;28;20165;-73
2022/05/03 12:15:42;;;;;;;3.13;2.43;;;17.20;1.00;;;;;;5010289;28;20177;-73
2022/05/03 12:18:09;;;;;;;3.37;2.63;;;17.30;1.00;;;;;;5009552;28;20551;-73
2022/05/03 12:20:41;;;;;;;5.30;3.00;;;17.50;1.00;;;;;;5010209;28;20192;-73
2022/05/03 12:23:19;;;;;;;5.63;2.43;;;17.50;99.90;;;;;;5008982;28;20180;-72
2022/05/03 12:25:48;;;;;;;4.33;2.67;;;17.40;99.90;;;;;;5010427;28;20252;-73
2022/05/03 12:28:13;;;;;;;3.27;2.37;;;17.60;1.00;;;;;;5010331;28;20196;-73
2022/05/03 12:30:39;;;;;;;3.87;2.70;;;17.70;1.00;;;;;;5010253;28;20192;-73
2022/05/03 12:33:07;;;;;;;3.97;2.50;;;17.70;99.90;;;;;;5010573;28;20222;-73
2022/05/03 12:35:35;;;;;;;4.67;2.87;;;17.70;99.90;;;;;;5008924;28;20173;-73
2022/05/03 12:38:11;;;;;;;4.33;2.87;;;17.70;99.90;;;;;;5010160;28;20654;-73
2022/05/03 12:41:02;;;;;;;3.50;2.17;;;17.70;99.90;;;;;;5010060;28;20204;-73
2022/05/03 12:43:32;;;;;;;3.90;2.30;;;17.80;99.90;;;;;;5010507;28;20643;-73
2022/05/03 12:46:03;;;;;;;5.57;2.80;;;17.90;99.90;;;;;;5010117;28;20257;-73
2022/05/03 12:48:29;;;;;;;3.13;2.53;;;17.90;99.90;;;;;;5010326;28;20662;-73
2022/05/03 12:50:56;;;;;;;2.83;2.53;;;17.90;99.90;;;;;;5008686;28;20192;-73
2022/05/03 12:53:26;;;;;;;2.80;2.40;;;17.80;99.90;;;;;;5009985;28;20180;-73
2022/05/03 12:55:56;;;;;;;3.37;2.80;;;17.80;99.90;;;;;;5010112;28;20210;-73
2022/05/03 12:58:23;;;;;;;4.43;2.37;;;17.80;99.90;;;;;;5008677;28;20654;-73
2022/05/03 13:00:50;;;;;;;3.23;2.30;;;17.80;99.90;;;;;;5008779;28;20207;-73
2022/05/03 13:03:15;;;;;;;4.90;2.13;;;17.90;99.90;;;;;;5009983;28;20175;-73
2022/05/03 13:05:41;;;;;;;4.30;2.33;;;18.00;99.90;;;;;;5010112;28;20205;-73
2022/05/03 13:08:07;;;;;;;2.90;2.40;;;18.00;99.90;;;;;;5008700;28;20222;-73
2022/05/03 13:10:36;;;;;;;5.77;2.50;;;18.10;99.90;;;;;;5008560;28;20265;-74
2022/05/03 13:13:03;;;;;;;4.40;2.30;;;18.30;99.90;;;;;;5008407;28;20661;-74
2022/05/03 13:15:28;;;;;;;5.33;2.80;;;18.40;99.90;;;;;;5009602;28;20226;-74
2022/05/03 13:17:54;;;;;;;7.73;2.23;;;18.60;99.90;;;;;;5008449;28;20185;-74
2022/05/03 13:20:20;;;;;;;5.10;2.20;;;18.60;99.90;;;;;;5009703;28;20674;-74
2022/05/03 13:22:46;;;;;;;3.07;2.67;;;18.60;99.90;;;;;;5010933;28;20173;-74
2022/05/03 13:25:12;;;;;;;5.80;2.83;;;18.70;99.90;;;;;;5055635;22;20631;-78
2022/05/03 13:27:37;;;;;;;5.03;2.60;;;18.60;99.90;;;;;;5056204;28;20203;-77
2022/05/03 13:30:04;;;;;;;5.17;2.60;;;18.70;99.90;;;;;;5056283;28;20163;-75
2022/05/03 13:32:30;;;;;;;7.20;2.90;;;18.80;99.90;;;;;;5056367;28;20183;-75
2022/05/03 13:34:56;;;;;;;7.13;3.40;;;18.80;99.90;;;;;;5056027;28;20198;-76
2022/05/03 13:43:04;;;;;;;3.80;2.90;;;18.90;99.90;;;;;;5042847;28;20655;-75
2022/05/03 13:45:30;;;;;;;3.43;2.73;;;18.80;99.90;;;;;;5038488;28;20677;-74
2022/05/03 13:47:56;;;;;;;4.70;2.60;;;18.80;99.90;;;;;;5038946;28;20205;-74